Nearby METAR Reports

 

KISP - Islip, New York, USA
Distance from station: SW 4mi, 6km
Updated: Fri, 10/20/2017 4:56 pm EDT
Few Clouds
Few Clouds
 Wind from WNW
Wind: WNW 10 mph , 17 km/h
Temperature: 72°F , 22°C
Dew Point: 37°F , 3°C
Humidity: 29%
Barometer: 30.08 inHg , 1018.6 hPa
Clouds: Few Clouds
Visibility: 10 miles , 16 km
Cloud details: Few Clouds 25000 ft
2017/10/20 20:56 KISP 202056Z 29009KT 10SM FEW250 22/03 A3008 RMK AO2 SLP186 T02170028 55001
KHWV - Shirley, New York, USA
Distance from station: E 10mi, 16km
Updated: Fri, 10/20/2017 4:56 pm EDT
Clear
Clear
 Wind from WNW
Wind: WNW 7 mph , 11 km/h
Temperature: 72°F , 22°C
Dew Point: 39°F , 4°C
Humidity: 31%
Barometer: 30.09 inHg , 1019 hPa
Clouds: Clear
Visibility: 10 miles , 16 km
2017/10/20 20:56 KHWV 202056Z AUTO 29006KT 10SM CLR 22/04 A3009 RMK AO2 SLP187 T02220044 55001
 
KFRG - Farmingdale, New York, USA
Distance from station: WSW 20mi, 33km
Updated: Fri, 10/20/2017 4:53 pm EDT
Clear
Clear
 Wind from NW
Wind: NW 7 mph , 11 km/h
Temperature: 72°F , 22°C
Dew Point: 34°F , 1°C
Humidity: 25%
Barometer: 30.09 inHg , 1019 hPa
Clouds: Clear
Visibility: 10 miles , 16 km
2017/10/20 20:53 KFRG 202053Z AUTO 31006KT 10SM CLR 22/01 A3009 RMK AO2 SLP189 T02220011 56002
KBDR - Bridgeport, Connecticut, USA
Distance from station: N 23mi, 37km
Updated: Fri, 10/20/2017 4:52 pm EDT
Clear
Clear
 Wind from NW
Wind: NW 14 mph , 22 km/h, Gust: 20 mph , 31 km/h
Temperature: 73°F , 23°C
Dew Point: 34°F , 1°C
Humidity: 23%
Barometer: 30.08 inHg , 1018.6 hPa
Clouds: Clear
Visibility: 10 miles , 16 km
2017/10/20 20:52 KBDR 202052Z 32012G17KT 10SM CLR 23/01 A3008 RMK AO2 SLP185 T02280011 53003
 
KFOK - Westhampton Beac, New York, USA
Distance from station: E 23mi, 37km
Updated: Fri, 10/20/2017 4:53 pm EDT
Clear
Clear
 Wind from W
Wind: W 8 mph , 13 km/h
Temperature: 70°F , 21°C
Dew Point: 36°F , 2°C
Humidity: 29%
Barometer: 30.09 inHg , 1019 hPa
Clouds: Clear
Visibility: 10 miles , 16 km
2017/10/20 20:53 KFOK 202053Z 27007KT 10SM CLR 21/02 A3009 RMK AO2 SLP188 T02110022 53001
KHVN - New Haven/Tweed, Connecticut, USA
Distance from station: NNE 31mi, 50km
Updated: Fri, 10/20/2017 4:53 pm EDT
Clear
Clear
 Wind from NW
Wind: NW 12 mph , 19 km/h, Gust: 21 mph , 33 km/h
Temperature: 72°F , 22°C
Dew Point: 36°F , 2°C
Humidity: 27%
Barometer: 30.08 inHg , 1018.6 hPa
Clouds: Clear
Visibility: 10 miles , 16 km
2017/10/20 20:53 KHVN 202053Z 32010G18KT 10SM CLR 22/02 A3008 RMK AO2 SLP184 T02220022 53003
 
KHPN - White Plains, New York, USA
Distance from station: WNW 37mi, 60km
Updated: Fri, 10/20/2017 4:56 pm EDT
Clear
Clear
 Wind from NW
Wind: NW 8 mph , 13 km/h
Temperature: 72°F , 22°C
Dew Point: 34°F , 1°C
Humidity: 25%
Barometer: 30.09 inHg , 1019 hPa
Clouds: Clear
Visibility: 10 miles , 16 km
2017/10/20 20:56 KHPN 202056Z 31007KT 10SM CLR 22/01 A3009 RMK AO2 SLP187 T02220006 55003
KJFK - Nyc/Jfk Arpt, New York, USA
Distance from station: WSW 40mi, 64km
Updated: Fri, 10/20/2017 4:51 pm EDT
Few Clouds
Few Clouds
 Wind from NW
Wind: NW 16 mph , 26 km/h
Temperature: 73°F , 23°C
Dew Point: 30°F , -1°C
Humidity: 20%
Barometer: 30.10 inHg , 1019.3 hPa
Clouds: Few Clouds
Visibility: 10 miles , 16 km
Cloud details: Few Clouds 25000 ft
2017/10/20 20:51 KJFK 202051Z 32014KT 10SM FEW250 23/M01 A3010 RMK AO2 SLP193 T02331011 55003
 
KDXR - Danbury, Connecticut, USA
Distance from station: NNW 42mi, 68km
Updated: Fri, 10/20/2017 4:53 pm EDT
Clear
Clear
 Wind from NW
Wind: NW 7 mph , 11 km/h
Temperature: 72°F , 22°C
Dew Point: 36°F , 2°C
Humidity: 27%
Barometer: 30.11 inHg , 1019.6 hPa
Clouds: Clear
Visibility: 10 miles , 16 km
2017/10/20 20:53 KDXR 202053Z 32006KT 10SM CLR 22/02 A3011 RMK AO2 SLP195 T02170017 53002
KHTO - East Hampton, New York, USA
Distance from station: E 43mi, 69km
Updated: Fri, 10/20/2017 4:55 pm EDT
Clear
Clear
 Wind from W
Wind: W 6 mph , 9 km/h
Temperature: 66°F , 19°C
Dew Point: 43°F , 6°C
Humidity: 43%
Barometer: 30.06 inHg , 1017.9 hPa
Clouds: Clear
Visibility: 10 miles , 16 km
2017/10/20 20:55 KHTO 202055Z AUTO 28005KT 10SM CLR 19/06 A3006 RMK AO2 T01920062
 
KOXC - Oxford/Waterbury, Connecticut, USA
Distance from station: N 43mi, 70km
Updated: Fri, 10/20/2017 4:51 pm EDT
Clear
Clear
 Wind from NW
Wind: NW 9 mph , 15 km/h, Gust: 17 mph , 28 km/h
Temperature: 66°F , 19°C
Dew Point: 36°F , 2°C
Humidity: 32%
Barometer: 30.11 inHg , 1019.6 hPa
Clouds: Clear
Visibility: 10 miles , 16 km
2017/10/20 20:51 KOXC 202051Z 31008G15KT 10SM CLR 19/02 A3011 RMK AO2 SLP205 T01940022 53006
KLGA - Nyc/La Guardia, New York, USA
Distance from station: W 44mi, 70km
Updated: Fri, 10/20/2017 4:51 pm EDT
Few Clouds
Few Clouds
 Wind from NW
Wind: NW 14 mph , 22 km/h
Temperature: 73°F , 23°C
Dew Point: 37°F , 3°C
Humidity: 27%
Barometer: 30.09 inHg , 1019 hPa
Clouds: Few Clouds
Visibility: 10 miles , 16 km
Cloud details: Few Clouds 25000 ft
2017/10/20 20:51 KLGA 202051Z 31012KT 10SM FEW250 23/03 A3009 RMK AO2 SLP188 T02280028 56004
 
KSNC - Chester, Connecticut, USA
Distance from station: NE 47mi, 76km
Updated: Fri, 10/20/2017 5:15 pm EDT
Clear
Clear
 Wind from NW
Wind: NW 10 mph , 17 km/h
Temperature: 70°F , 21°C
Dew Point: 37°F , 3°C
Humidity: 31%
Barometer: 30.08 inHg , 1018.6 hPa
Clouds: Clear
Visibility: 10 miles , 16 km
2017/10/20 21:15 KSNC 202115Z AUTO 32009KT 10SM CLR 21/03 A3008 RMK AO2
KMMK - Meriden, Connecticut, USA
Distance from station: NNE 48mi, 77km
Updated: Fri, 10/20/2017 4:53 pm EDT
Clear
Clear
 Wind from NNW
Wind: NNW 9 mph , 15 km/h, Gust: 17 mph , 28 km/h
Temperature: 70°F , 21°C
Dew Point: 37°F , 3°C
Humidity: 31%
Barometer: 30.08 inHg , 1018.6 hPa
Clouds: Clear
Visibility: 10 miles , 16 km
2017/10/20 20:53 KMMK 202053Z AUTO 33008G15KT 10SM CLR 21/03 A3008 RMK AO2 SLP186 T02060033 53008
 
KNYC - Nyc/Central Park, New York, USA
Distance from station: W 48mi, 77km
Updated: Fri, 10/20/2017 3:51 pm EDT
NOT Current
Clear
Clear
 Wind from varies
Wind: varies 5 mph , 7 km/h
Temperature: 73°F , 23°C
Dew Point: 28°F , -2°C
Humidity: 19%
Barometer: 30.12 inHg , 1020 hPa
Clouds: Clear
Visibility: 10 miles , 16 km
2017/10/20 19:51 KNYC 201951Z AUTO VRB04KT 10SM CLR 23/M02 A3012 RMK AO2 SLP191 T02281017 $